Terminal Aerodrome Forecast
Issued by NWS

Home | Current Version | Previous Version | Text Only | Print | Product List | Glossary On
Versions: 1 2 3 4 5 6 7 8 9 10 11 12 13 14 15
826
FTUS43 KAPX 261120
TAFPLN
TAF
KPLN 261120Z 2612/2712 23005KT P6SM BKN060
     FM261500 24006KT P6SM VCSH SCT050 BKN060
     FM262100 29005KT P6SM VCSH BKN100
     FM270000 36004KT P6SM VCSH BKN070
     FM270600 VRB03KT P6SM BKN100=

USA.gov is the U.S. government's official web portal to all federal, state and local government web resources and services.